createdAt,value
2022-11-27T00:02:22.001Z,-61
2022-11-27T00:04:48.472Z,-61
2022-11-27T00:07:14.972Z,-60
2022-11-27T00:09:41.843Z,-61
2022-11-27T00:12:08.685Z,-61
2022-11-27T00:14:35.159Z,-61
2022-11-27T00:17:01.838Z,-61
2022-11-27T00:19:29.230Z,-61
2022-11-27T00:21:55.687Z,-61
2022-11-27T00:24:23.615Z,-61
2022-11-27T00:26:50.071Z,-62
2022-11-27T00:29:16.609Z,-61
2022-11-27T00:31:43.203Z,-62
2022-11-27T00:34:10.932Z,-61
2022-11-27T00:36:38.524Z,-61
2022-11-27T00:39:05.569Z,-61
2022-11-27T00:41:32.321Z,-60
2022-11-27T00:43:59.100Z,-61
2022-11-27T00:46:28.983Z,-60
2022-11-27T00:49:00.820Z,-61
2022-11-27T00:51:27.988Z,-61
2022-11-27T00:53:55.108Z,-61
2022-11-27T00:56:24.378Z,-61
2022-11-27T00:58:51.699Z,-61
2022-11-27T01:01:24.163Z,-60
2022-11-27T01:03:51.484Z,-61
2022-11-27T01:06:19.178Z,-60
2022-11-27T01:08:45.901Z,-61
2022-11-27T01:11:18.646Z,-60
2022-11-27T01:13:45.710Z,-60
2022-11-27T01:16:15.642Z,-60
2022-11-27T01:18:43.986Z,-60
2022-11-27T01:21:11.655Z,-60
2022-11-27T01:23:38.227Z,-60
2022-11-27T01:26:07.260Z,-59
2022-11-27T01:28:34.530Z,-59
2022-11-27T01:31:07.013Z,-59
2022-11-27T01:33:33.995Z,-60
2022-11-27T01:36:02.309Z,-60
2022-11-27T01:38:31.064Z,-60
2022-11-27T01:40:58.867Z,-60
2022-11-27T01:43:46.621Z,-59
2022-11-27T01:46:28.769Z,-60
2022-11-27T01:49:03.143Z,-60
2022-11-27T01:51:31.065Z,-60
2022-11-27T01:53:57.804Z,-60
2022-11-27T01:56:26.059Z,-60
2022-11-27T01:58:52.918Z,-59
2022-11-27T02:01:19.488Z,-60
2022-11-27T02:03:46.023Z,-59
2022-11-27T02:06:14.042Z,-60
2022-11-27T02:08:41.568Z,-60
2022-11-27T02:11:49.131Z,-60
2022-11-27T02:14:24.023Z,-58
2022-11-27T02:16:59.907Z,-60
2022-11-27T02:19:56.557Z,-59
2022-11-27T02:22:32.046Z,-59
2022-11-27T02:25:25.316Z,-59
2022-11-27T02:28:05.054Z,-60
2022-11-27T02:30:36.650Z,-60
2022-11-27T02:33:09.977Z,-60
2022-11-27T02:35:40.839Z,-60
2022-11-27T02:38:15.188Z,-60
2022-11-27T02:40:50.837Z,-61
2022-11-27T02:43:38.696Z,-60
2022-11-27T02:46:08.342Z,-60
2022-11-27T02:48:40.340Z,-60
2022-11-27T02:51:08.267Z,-60
2022-11-27T02:53:45.530Z,-60
2022-11-27T02:56:17.006Z,-60
2022-11-27T02:58:46.350Z,-60
2022-11-27T03:01:15.839Z,-61
2022-11-27T03:03:48.084Z,-60
2022-11-27T03:06:20.682Z,-60
2022-11-27T03:08:58.760Z,-61
2022-11-27T03:11:30.767Z,-61
2022-11-27T03:14:02.207Z,-62
2022-11-27T03:16:43.406Z,-60
2022-11-27T03:19:19.455Z,-62
2022-11-27T03:21:48.157Z,-62
2022-11-27T03:24:15.030Z,-61
2022-11-27T03:26:41.939Z,-59
2022-11-27T03:29:17.942Z,-60
2022-11-27T03:31:44.896Z,-60
2022-11-27T03:34:12.202Z,-60
2022-11-27T03:36:38.680Z,-60
2022-11-27T03:39:05.489Z,-59
2022-11-27T03:41:44.032Z,-59
2022-11-27T03:44:24.659Z,-60
2022-11-27T03:47:07.781Z,-60
2022-11-27T03:49:34.221Z,-60
2022-11-27T03:52:20.776Z,-60
2022-11-27T03:55:01.061Z,-60
2022-11-27T03:57:38.143Z,-60
2022-11-27T04:00:08.290Z,-60
2022-11-27T04:02:45.195Z,-59
2022-11-27T04:05:12.659Z,-60
2022-11-27T04:07:39.827Z,-60
2022-11-27T04:10:07.238Z,-59
2022-11-27T04:12:33.797Z,-59
2022-11-27T04:15:01.027Z,-60
2022-11-27T04:17:27.647Z,-59
2022-11-27T04:19:54.108Z,-60
2022-11-27T04:22:20.665Z,-60
2022-11-27T04:24:47.181Z,-59
2022-11-27T04:27:13.688Z,-60
2022-11-27T04:29:40.495Z,-59
2022-11-27T04:32:06.916Z,-60
2022-11-27T04:34:33.371Z,-60
2022-11-27T04:37:00.163Z,-59
2022-11-27T04:39:27.033Z,-60
2022-11-27T04:41:53.561Z,-59
2022-11-27T04:44:22.670Z,-59
2022-11-27T04:46:50.137Z,-59
2022-11-27T04:49:16.792Z,-60
2022-11-27T04:51:43.273Z,-59
2022-11-27T04:54:09.735Z,-59
2022-11-27T04:56:37.140Z,-60
2022-11-27T04:59:05.001Z,-60
2022-11-27T05:01:31.686Z,-60
2022-11-27T05:03:58.230Z,-59
2022-11-27T05:06:24.730Z,-59
2022-11-27T05:08:51.201Z,-59
2022-11-27T05:11:18.196Z,-63
2022-11-27T05:13:45.158Z,-63
2022-11-27T05:16:11.799Z,-64
2022-11-27T05:18:38.682Z,-64
2022-11-27T05:21:07.956Z,-64
2022-11-27T05:23:35.244Z,-64
2022-11-27T05:26:03.871Z,-64
2022-11-27T05:28:30.397Z,-64
2022-11-27T05:30:56.890Z,-64
2022-11-27T05:33:23.523Z,-64
2022-11-27T05:35:49.952Z,-63
2022-11-27T05:38:16.401Z,-64
2022-11-27T05:40:42.893Z,-64
2022-11-27T05:43:09.480Z,-64
2022-11-27T05:45:37.457Z,-64
2022-11-27T05:48:04.065Z,-64
2022-11-27T05:50:30.526Z,-64
2022-11-27T05:52:56.958Z,-64
2022-11-27T05:55:23.862Z,-64
2022-11-27T05:57:50.318Z,-64
2022-11-27T06:00:17.054Z,-63
2022-11-27T06:02:44.022Z,-63
2022-11-27T06:05:10.563Z,-63
2022-11-27T06:07:37.032Z,-63
2022-11-27T06:10:04.040Z,-64
2022-11-27T06:12:32.074Z,-62
2022-11-27T06:14:58.574Z,-64
2022-11-27T06:17:25.045Z,-63
2022-11-27T06:19:51.697Z,-63
2022-11-27T06:22:18.159Z,-63
2022-11-27T06:24:44.602Z,-64
2022-11-27T06:27:11.263Z,-65
2022-11-27T06:29:37.918Z,-65
2022-11-27T06:32:05.070Z,-63
2022-11-27T06:34:31.683Z,-63
2022-11-27T06:36:58.109Z,-64
2022-11-27T06:39:24.573Z,-64
2022-11-27T06:41:51.026Z,-64
2022-11-27T06:44:17.529Z,-64
2022-11-27T06:46:44.141Z,-64
2022-11-27T06:49:10.625Z,-64
2022-11-27T06:51:37.129Z,-64
2022-11-27T06:54:03.749Z,-65
2022-11-27T06:56:32.136Z,-64
2022-11-27T06:59:00.946Z,-64
2022-11-27T07:01:30.291Z,-64
2022-11-27T07:03:57.695Z,-65
2022-11-27T07:06:26.601Z,-65
2022-11-27T07:08:53.658Z,-67
2022-11-27T07:11:23.068Z,-66
2022-11-27T07:13:50.968Z,-67
2022-11-27T07:16:18.848Z,-67
2022-11-27T07:18:50.996Z,-66
2022-11-27T07:21:17.799Z,-67
2022-11-27T07:23:44.681Z,-66
2022-11-27T07:26:16.721Z,-65
2022-11-27T07:28:44.045Z,-67
2022-11-27T07:31:12.370Z,-65
2022-11-27T07:33:39.069Z,-64
2022-11-27T07:36:08.842Z,-63
2022-11-27T07:38:35.357Z,-63
2022-11-27T07:41:03.507Z,-63
2022-11-27T07:43:31.710Z,-63
2022-11-27T07:45:58.870Z,-64
2022-11-27T07:48:25.684Z,-63
2022-11-27T07:50:52.119Z,-63
2022-11-27T07:53:18.619Z,-63
2022-11-27T07:55:45.058Z,-63
2022-11-27T07:58:11.574Z,-65
2022-11-27T08:00:38.296Z,-64
2022-11-27T08:03:04.885Z,-65
2022-11-27T08:05:35.576Z,-65
2022-11-27T08:08:04.468Z,-66
2022-11-27T08:10:34.637Z,-65
2022-11-27T08:13:01.099Z,-65
2022-11-27T08:15:27.573Z,-65
2022-11-27T08:17:54.316Z,-64
2022-11-27T08:20:21.008Z,-65
2022-11-27T08:22:47.538Z,-65
2022-11-27T08:25:14.422Z,-65
2022-11-27T08:27:41.085Z,-65
2022-11-27T08:30:08.189Z,-65
2022-11-27T08:32:34.757Z,-65
2022-11-27T08:35:02.631Z,-64
2022-11-27T08:37:29.248Z,-65
2022-11-27T08:39:55.667Z,-65
2022-11-27T08:42:23.228Z,-65
2022-11-27T08:44:49.836Z,-65
2022-11-27T08:47:16.968Z,-65
2022-11-27T08:49:46.218Z,-64
2022-11-27T08:52:13.464Z,-64
2022-11-27T08:54:40.204Z,-64
2022-11-27T08:57:06.805Z,-65
2022-11-27T08:59:33.303Z,-65
2022-11-27T09:01:59.740Z,-64
2022-11-27T09:04:26.215Z,-65
2022-11-27T09:06:57.956Z,-64
2022-11-27T09:09:25.014Z,-66
2022-11-27T09:11:54.239Z,-65
2022-11-27T09:14:21.137Z,-65
2022-11-27T09:16:47.682Z,-65
2022-11-27T09:19:14.218Z,-64
2022-11-27T09:21:41.073Z,-64
2022-11-27T09:24:08.956Z,-63
2022-11-27T09:26:35.847Z,-61
2022-11-27T09:29:02.605Z,-63
2022-11-27T09:31:29.115Z,-63
2022-11-27T09:33:55.621Z,-64
2022-11-27T09:36:24.463Z,-62
2022-11-27T09:38:51.409Z,-63
2022-11-27T09:41:38.833Z,-63
2022-11-27T09:44:31.876Z,-63
2022-11-27T09:47:10.203Z,-63
2022-11-27T09:49:43.683Z,-62
2022-11-27T09:52:10.110Z,-63
2022-11-27T09:54:52.272Z,-64
2022-11-27T09:57:26.757Z,-63
2022-11-27T09:59:54.011Z,-63
2022-11-27T10:02:29.855Z,-63
2022-11-27T10:05:13.453Z,-63
2022-11-27T10:08:09.312Z,-63
2022-11-27T10:10:57.072Z,-63
2022-11-27T10:13:29.825Z,-65
2022-11-27T10:16:23.995Z,-62
2022-11-27T10:18:58.168Z,-63
2022-11-27T10:21:41.227Z,-64
2022-11-27T10:24:36.820Z,-63
2022-11-27T10:27:20.505Z,-62
2022-11-27T10:29:52.746Z,-63
2022-11-27T10:32:53.390Z,-62
2022-11-27T10:35:18.476Z,-63
2022-11-27T10:37:54.886Z,-64
2022-11-27T10:40:28.246Z,-64
2022-11-27T10:42:59.633Z,-63
2022-11-27T10:45:44.521Z,-64
2022-11-27T10:48:12.447Z,-63
2022-11-27T10:50:39.482Z,-66
2022-11-27T10:53:10.657Z,-66
2022-11-27T10:56:05.088Z,-66
2022-11-27T10:58:50.397Z,-65
2022-11-27T11:01:20.344Z,-65
2022-11-27T11:03:47.292Z,-65
2022-11-27T11:06:22.395Z,-65
2022-11-27T11:09:02.963Z,-64
2022-11-27T11:11:29.607Z,-64
2022-11-27T11:13:56.107Z,-65
2022-11-27T11:16:29.392Z,-64
2022-11-27T11:18:58.825Z,-64
2022-11-27T11:21:28.011Z,-64
2022-11-27T11:24:01.603Z,-65
2022-11-27T11:26:30.010Z,-68
2022-11-27T11:28:59.483Z,-65
2022-11-27T11:31:38.558Z,-64
2022-11-27T11:34:17.825Z,-65
2022-11-27T11:37:02.761Z,-64
2022-11-27T11:39:32.488Z,-65
2022-11-27T11:41:59.642Z,-65
2022-11-27T11:44:37.435Z,-65
2022-11-27T11:47:03.891Z,-65
2022-11-27T11:49:33.303Z,-63
2022-11-27T11:52:09.057Z,-64
2022-11-27T11:54:42.848Z,-66
2022-11-27T11:57:41.901Z,-65
2022-11-27T12:01:04.425Z,-65
2022-11-27T12:03:38.098Z,-64
2022-11-27T12:06:19.946Z,-66
2022-11-27T12:08:49.266Z,-66
2022-11-27T12:11:19.477Z,-64
2022-11-27T12:14:07.121Z,-64
2022-11-27T12:17:02.777Z,-64
2022-11-27T12:19:35.414Z,-66
2022-11-27T12:22:23.421Z,-64
2022-11-27T12:25:04.512Z,-65
2022-11-27T12:27:49.831Z,-64
2022-11-27T12:30:26.623Z,-64
2022-11-27T12:33:21.157Z,-64
2022-11-27T12:36:04.462Z,-64
2022-11-27T12:38:42.877Z,-64
2022-11-27T12:41:35.555Z,-64
2022-11-27T12:44:02.606Z,-65
2022-11-27T12:46:59.682Z,-64
2022-11-27T12:49:32.676Z,-65
2022-11-27T12:52:11.691Z,-65
2022-11-27T12:54:58.290Z,-63
2022-11-27T12:57:53.920Z,-65
2022-11-27T13:00:23.595Z,-64
2022-11-27T13:02:56.345Z,-65
2022-11-27T13:05:28.415Z,-65
2022-11-27T13:08:10.152Z,-63
2022-11-27T13:10:43.613Z,-65
2022-11-27T13:13:31.825Z,-65
2022-11-27T13:16:07.616Z,-67
2022-11-27T13:18:38.382Z,-65
2022-11-27T13:21:12.038Z,-65
2022-11-27T13:23:39.021Z,-64
2022-11-27T13:26:11.487Z,-63
2022-11-27T13:28:48.591Z,-65
2022-11-27T13:31:21.904Z,-65
2022-11-27T13:33:49.753Z,-64
2022-11-27T13:36:26.648Z,-64
2022-11-27T13:38:57.797Z,-65
2022-11-27T13:41:32.957Z,-65
2022-11-27T13:43:59.617Z,-64
2022-11-27T13:46:32.458Z,-66
2022-11-27T13:49:05.310Z,-66
2022-11-27T13:51:34.878Z,-66
2022-11-27T13:54:12.090Z,-64
2022-11-27T13:56:39.591Z,-67
2022-11-27T13:59:24.523Z,-64
2022-11-27T14:02:01.826Z,-66
2022-11-27T14:04:31.183Z,-64
2022-11-27T14:07:03.297Z,-65
2022-11-27T14:09:35.085Z,-65
2022-11-27T14:12:01.799Z,-65
2022-11-27T14:14:28.933Z,-64
2022-11-27T14:17:07.823Z,-64
2022-11-27T14:19:41.322Z,-65
2022-11-27T14:22:31.473Z,-65
2022-11-27T14:24:57.991Z,-66
2022-11-27T14:27:28.473Z,-65
2022-11-27T14:29:54.954Z,-65
2022-11-27T14:32:21.560Z,-66
2022-11-27T14:34:48.847Z,-65
2022-11-27T14:37:22.294Z,-66
2022-11-27T14:39:48.763Z,-65
2022-11-27T14:42:29.591Z,-65
2022-11-27T14:45:05.244Z,-65
2022-11-27T14:47:35.051Z,-66
2022-11-27T14:50:03.551Z,-65
2022-11-27T14:52:30.819Z,-65
2022-11-27T14:54:57.681Z,-65
2022-11-27T14:57:26.874Z,-64
2022-11-27T15:00:21.325Z,-65
2022-11-27T15:02:49.998Z,-65
2022-11-27T15:05:25.987Z,-65
2022-11-27T15:08:00.855Z,-66
2022-11-27T15:10:30.053Z,-65
2022-11-27T15:12:57.052Z,-65
2022-11-27T15:15:27.470Z,-66
2022-11-27T15:18:00.997Z,-63
2022-11-27T15:20:35.786Z,-64
2022-11-27T15:23:02.830Z,-64
2022-11-27T15:25:41.039Z,-63
2022-11-27T15:28:36.469Z,-63
2022-11-27T15:31:24.980Z,-64
2022-11-27T15:34:04.702Z,-64
2022-11-27T15:36:38.744Z,-69
2022-11-27T15:39:17.284Z,-68
2022-11-27T15:41:55.711Z,-66
2022-11-27T15:44:23.677Z,-66
2022-11-27T15:46:50.893Z,-65
2022-11-27T15:49:17.435Z,-66
2022-11-27T15:51:43.909Z,-66
2022-11-27T15:54:10.334Z,-66
2022-11-27T15:56:36.827Z,-66
2022-11-27T15:59:03.735Z,-65
2022-11-27T16:01:30.329Z,-65
2022-11-27T16:03:57.622Z,-65
2022-11-27T16:06:24.822Z,-65
2022-11-27T16:08:59.416Z,-66
2022-11-27T16:11:28.082Z,-66
2022-11-27T16:13:54.740Z,-66
2022-11-27T16:16:21.494Z,-66
2022-11-27T16:18:48.155Z,-66
2022-11-27T16:21:16.102Z,-66
2022-11-27T16:23:42.778Z,-66
2022-11-27T16:26:14.191Z,-66
2022-11-27T16:28:40.993Z,-66
2022-11-27T16:31:11.633Z,-67
2022-11-27T16:33:38.232Z,-66
2022-11-27T16:36:12.708Z,-65
2022-11-27T16:38:41.479Z,-67
2022-11-27T16:41:11.136Z,-66
2022-11-27T16:43:40.281Z,-67
2022-11-27T16:46:09.711Z,-66
2022-11-27T16:48:37.854Z,-66
2022-11-27T16:51:11.338Z,-66
2022-11-27T16:53:40.095Z,-65
2022-11-27T16:56:08.111Z,-65
2022-11-27T16:58:36.092Z,-65
2022-11-27T17:01:11.194Z,-66
2022-11-27T17:03:38.372Z,-65
2022-11-27T17:06:13.066Z,-65
2022-11-27T17:08:40.072Z,-65
2022-11-27T17:11:11.122Z,-58
2022-11-27T17:13:37.960Z,-61
2022-11-27T17:16:06.756Z,-59
2022-11-27T17:18:33.289Z,-62
2022-11-27T17:21:02.476Z,-61
2022-11-27T17:23:29.149Z,-60
2022-11-27T17:25:55.847Z,-61
2022-11-27T17:28:22.281Z,-61
2022-11-27T17:30:48.769Z,-60
2022-11-27T17:33:15.475Z,-59
2022-11-27T17:35:42.519Z,-61
2022-11-27T17:38:08.986Z,-61
2022-11-27T17:40:35.510Z,-59
2022-11-27T17:43:01.976Z,-60
2022-11-27T17:45:28.447Z,-59
2022-11-27T17:47:54.917Z,-61
2022-11-27T17:50:21.398Z,-63
2022-11-27T17:52:47.866Z,-61
2022-11-27T17:55:14.445Z,-61
2022-11-27T17:57:40.907Z,-62
2022-11-27T18:00:08.138Z,-62
2022-11-27T18:02:34.713Z,-63
2022-11-27T18:05:01.442Z,-60
2022-11-27T18:07:28.866Z,-61
2022-11-27T18:09:57.146Z,-61
2022-11-27T18:12:23.633Z,-62
2022-11-27T18:14:55.330Z,-62
2022-11-27T18:17:24.433Z,-62
2022-11-27T18:19:51.249Z,-61
2022-11-27T18:22:19.568Z,-62
2022-11-27T18:24:46.088Z,-61
2022-11-27T18:27:15.204Z,-61
2022-11-27T18:29:44.659Z,-61
2022-11-27T18:32:13.015Z,-60
2022-11-27T18:34:40.597Z,-60
2022-11-27T18:37:07.598Z,-61
2022-11-27T18:39:35.427Z,-61
2022-11-27T18:42:03.371Z,-60
2022-11-27T18:44:29.818Z,-61
2022-11-27T18:46:56.473Z,-61
2022-11-27T18:49:23.369Z,-62
2022-11-27T18:51:54.182Z,-61
2022-11-27T18:54:21.307Z,-58
2022-11-27T18:56:47.775Z,-59
2022-11-27T18:59:14.230Z,-61
2022-11-27T19:01:42.722Z,-61
2022-11-27T19:04:11.229Z,-59
2022-11-27T19:06:38.758Z,-61
2022-11-27T19:09:06.104Z,-62
2022-11-27T19:11:33.994Z,-60
2022-11-27T19:14:01.016Z,-60
2022-11-27T19:16:31.240Z,-59
2022-11-27T19:18:59.552Z,-62
2022-11-27T19:21:28.825Z,-62
2022-11-27T19:23:57.884Z,-63
2022-11-27T19:26:27.141Z,-62
2022-11-27T19:28:56.199Z,-62
2022-11-27T19:31:24.512Z,-62
2022-11-27T19:33:55.687Z,-60
2022-11-27T19:36:23.361Z,-60
2022-11-27T19:38:55.245Z,-60
2022-11-27T19:41:21.831Z,-61
2022-11-27T19:43:48.395Z,-61
2022-11-27T19:46:18.972Z,-62
2022-11-27T19:48:46.961Z,-63
2022-11-27T19:51:14.047Z,-61
2022-11-27T19:53:41.484Z,-60
2022-11-27T19:56:10.035Z,-59
2022-11-27T19:58:37.146Z,-60
2022-11-27T20:01:11.418Z,-63
2022-11-27T20:03:38.751Z,-62
2022-11-27T20:06:16.881Z,-61
2022-11-27T20:08:44.984Z,-61
2022-11-27T20:11:15.288Z,-62
2022-11-27T20:13:42.018Z,-62
2022-11-27T20:16:10.812Z,-62
2022-11-27T20:18:38.142Z,-61
2022-11-27T20:21:14.839Z,-63
2022-11-27T20:23:42.118Z,-62
2022-11-27T20:26:13.779Z,-62
2022-11-27T20:28:41.420Z,-62
2022-11-27T20:31:25.608Z,-62
2022-11-27T20:33:54.354Z,-63
2022-11-27T20:36:25.295Z,-63
2022-11-27T20:38:52.491Z,-63
2022-11-27T20:41:20.728Z,-63
2022-11-27T20:43:47.989Z,-62
2022-11-27T20:46:16.461Z,-62
2022-11-27T20:48:46.167Z,-62
2022-11-27T20:51:15.213Z,-63
2022-11-27T20:53:43.623Z,-63
2022-11-27T20:56:11.841Z,-62
2022-11-27T20:58:40.196Z,-62
2022-11-27T21:01:26.275Z,-62
2022-11-27T21:03:54.169Z,-61
2022-11-27T21:06:24.497Z,-60
2022-11-27T21:08:51.211Z,-61
2022-11-27T21:11:25.196Z,-60
2022-11-27T21:13:55.936Z,-62
2022-11-27T21:16:24.589Z,-63
2022-11-27T21:18:54.998Z,-61
2022-11-27T21:21:21.641Z,-61
2022-11-27T21:23:48.239Z,-63
2022-11-27T21:26:18.528Z,-61
2022-11-27T21:28:45.466Z,-62
2022-11-27T21:31:18.148Z,-62
2022-11-27T21:33:51.646Z,-61
2022-11-27T21:36:19.347Z,-61
2022-11-27T21:38:45.794Z,-60
2022-11-27T21:41:14.102Z,-61
2022-11-27T21:43:41.276Z,-61
2022-11-27T21:46:10.167Z,-61
2022-11-27T21:48:36.852Z,-61
2022-11-27T21:51:04.725Z,-61
2022-11-27T21:53:32.275Z,-62
2022-11-27T21:56:02.867Z,-63
2022-11-27T21:58:34.099Z,-62
2022-11-27T22:01:01.896Z,-62
2022-11-27T22:03:28.591Z,-61
2022-11-27T22:06:01.606Z,-62
2022-11-27T22:08:36.230Z,-60
2022-11-27T22:11:07.743Z,-62
2022-11-27T22:13:34.811Z,-61
2022-11-27T22:16:01.336Z,-61
2022-11-27T22:18:28.127Z,-61
2022-11-27T22:20:54.638Z,-62
2022-11-27T22:23:21.070Z,-62
2022-11-27T22:25:47.536Z,-61
2022-11-27T22:28:14.016Z,-61
2022-11-27T22:30:40.510Z,-61
2022-11-27T22:33:07.035Z,-62
2022-11-27T22:35:33.579Z,-61
2022-11-27T22:38:00.009Z,-59
2022-11-27T22:40:26.485Z,-62
2022-11-27T22:42:53.153Z,-60
2022-11-27T22:45:19.625Z,-60
2022-11-27T22:47:46.142Z,-61
2022-11-27T22:50:12.606Z,-62
2022-11-27T22:52:39.080Z,-60
2022-11-27T22:55:06.057Z,-61
2022-11-27T22:57:34.055Z,-62
2022-11-27T23:00:00.690Z,-61
2022-11-27T23:02:27.573Z,-61
2022-11-27T23:04:54.157Z,-62
2022-11-27T23:07:24.962Z,-61
2022-11-27T23:09:51.988Z,-60
2022-11-27T23:12:18.743Z,-65
2022-11-27T23:14:45.205Z,-63
2022-11-27T23:17:12.027Z,-64
2022-11-27T23:19:38.490Z,-65
2022-11-27T23:22:04.946Z,-64
2022-11-27T23:24:31.783Z,-65
2022-11-27T23:26:58.284Z,-63
2022-11-27T23:29:25.198Z,-65
2022-11-27T23:31:51.840Z,-65
2022-11-27T23:34:18.315Z,-64
2022-11-27T23:36:44.871Z,-63
2022-11-27T23:39:13.846Z,-64
2022-11-27T23:41:40.921Z,-63
2022-11-27T23:44:07.965Z,-65
2022-11-27T23:46:34.667Z,-65
2022-11-27T23:49:01.180Z,-64
2022-11-27T23:51:30.857Z,-63
2022-11-27T23:53:58.599Z,-64
2022-11-27T23:56:28.117Z,-64
2022-11-27T23:58:55.946Z,-64
